sensor_id;sensor_type;location;lat;lon;timestamp;temperature;humidity
22996;DHT22;11664;49.774;8.650;2023-01-23T02:28:08;1.40;99.90
22996;DHT22;11664;49.774;8.650;2023-01-23T02:30:36;1.40;99.90
22996;DHT22;11664;49.774;8.650;2023-01-23T02:36:00;1.30;99.90
22996;DHT22;11664;49.774;8.650;2023-01-23T02:38:29;1.30;99.90
22996;DHT22;11664;49.774;8.650;2023-01-23T02:40:59;1.20;99.90
22996;DHT22;11664;49.774;8.650;2023-01-23T02:43:29;1.10;99.90
22996;DHT22;11664;49.774;8.650;2023-01-23T02:46:04;1.20;99.90
22996;DHT22;11664;49.774;8.650;2023-01-23T02:48:30;1.10;99.90
22996;DHT22;11664;49.774;8.650;2023-01-23T02:50:56;1.10;99.90
22996;DHT22;11664;49.774;8.650;2023-01-23T02:53:22;1.10;99.90
22996;DHT22;11664;49.774;8.650;2023-01-23T02:55:48;1.10;99.90
22996;DHT22;11664;49.774;8.650;2023-01-23T02:58:14;1.10;99.90
22996;DHT22;11664;49.774;8.650;2023-01-23T03:00:58;1.20;99.90
22996;DHT22;11664;49.774;8.650;2023-01-23T03:03:24;1.20;99.90
22996;DHT22;11664;49.774;8.650;2023-01-23T03:05:50;1.20;99.90
22996;DHT22;11664;49.774;8.650;2023-01-23T03:08:16;1.20;99.90
22996;DHT22;11664;49.774;8.650;2023-01-23T03:10:42;1.20;99.90
22996;DHT22;11664;49.774;8.650;2023-01-23T03:13:08;1.20;99.90
22996;DHT22;11664;49.774;8.650;2023-01-23T03:15:36;1.30;99.90
22996;DHT22;11664;49.774;8.650;2023-01-23T03:18:07;1.30;99.90
22996;DHT22;11664;49.774;8.650;2023-01-23T03:20:40;1.30;99.90
22996;DHT22;11664;49.774;8.650;2023-01-23T03:23:06;1.30;99.90
22996;DHT22;11664;49.774;8.650;2023-01-23T03:25:32;1.30;99.90
22996;DHT22;11664;49.774;8.650;2023-01-23T03:27:58;1.30;99.90
22996;DHT22;11664;49.774;8.650;2023-01-23T03:30:24;1.30;99.90
22996;DHT22;11664;49.774;8.650;2023-01-23T03:32:51;1.30;99.90
22996;DHT22;11664;49.774;8.650;2023-01-23T03:35:17;1.30;99.90
22996;DHT22;11664;49.774;8.650;2023-01-23T03:37:47;1.40;99.90
22996;DHT22;11664;49.774;8.650;2023-01-23T03:40:17;1.40;99.90
22996;DHT22;11664;49.774;8.650;2023-01-23T03:43:02;1.40;99.90
22996;DHT22;11664;49.774;8.650;2023-01-23T03:45:28;1.40;99.90
22996;DHT22;11664;49.774;8.650;2023-01-23T03:47:54;1.40;99.90
22996;DHT22;11664;49.774;8.650;2023-01-23T03:50:20;1.40;99.90
22996;DHT22;11664;49.774;8.650;2023-01-23T03:52:47;1.50;99.90
22996;DHT22;11664;49.774;8.650;2023-01-23T03:55:16;1.50;99.90
22996;DHT22;11664;49.774;8.650;2023-01-23T03:57:44;1.50;99.90
22996;DHT22;11664;49.774;8.650;2023-01-23T04:00:10;1.50;99.90
22996;DHT22;11664;49.774;8.650;2023-01-23T04:02:38;1.50;99.90
22996;DHT22;11664;49.774;8.650;2023-01-23T04:05:04;1.50;99.90
22996;DHT22;11664;49.774;8.650;2023-01-23T04:07:30;1.50;99.90
22996;DHT22;11664;49.774;8.650;2023-01-23T04:09:56;1.50;99.90
22996;DHT22;11664;49.774;8.650;2023-01-23T04:12:22;1.50;99.90
22996;DHT22;11664;49.774;8.650;2023-01-23T04:14:48;1.50;99.90
22996;DHT22;11664;49.774;8.650;2023-01-23T04:17:13;1.50;99.90
22996;DHT22;11664;49.774;8.650;2023-01-23T04:19:39;1.50;99.90
22996;DHT22;11664;49.774;8.650;2023-01-23T04:22:05;1.50;99.90
22996;DHT22;11664;49.774;8.650;2023-01-23T04:24:31;1.50;99.90
22996;DHT22;11664;49.774;8.650;2023-01-23T04:27:03;1.50;99.90
22996;DHT22;11664;49.774;8.650;2023-01-23T04:29:29;1.50;99.90
22996;DHT22;11664;49.774;8.650;2023-01-23T04:31:55;1.50;99.90
22996;DHT22;11664;49.774;8.650;2023-01-23T04:34:21;1.60;99.90
22996;DHT22;11664;49.774;8.650;2023-01-23T04:36:47;1.60;99.90
22996;DHT22;11664;49.774;8.650;2023-01-23T04:39:13;1.60;99.90
22996;DHT22;11664;49.774;8.650;2023-01-23T04:41:39;1.60;99.90
22996;DHT22;11664;49.774;8.650;2023-01-23T04:44:04;1.60;99.90
22996;DHT22;11664;49.774;8.650;2023-01-23T04:46:46;1.60;99.90
22996;DHT22;11664;49.774;8.650;2023-01-23T04:49:14;1.60;99.90
22996;DHT22;11664;49.774;8.650;2023-01-23T04:51:40;1.60;99.90
22996;DHT22;11664;49.774;8.650;2023-01-23T04:54:09;1.60;99.90
22996;DHT22;11664;49.774;8.650;2023-01-23T04:56:38;1.60;99.90
22996;DHT22;11664;49.774;8.650;2023-01-23T04:59:04;1.60;99.90
22996;DHT22;11664;49.774;8.650;2023-01-23T05:01:30;1.60;99.90
22996;DHT22;11664;49.774;8.650;2023-01-23T05:03:56;1.60;99.90
22996;DHT22;11664;49.774;8.650;2023-01-23T05:06:22;1.70;99.90
22996;DHT22;11664;49.774;8.650;2023-01-23T05:08:48;1.70;99.90
22996;DHT22;11664;49.774;8.650;2023-01-23T05:11:14;1.70;99.90
22996;DHT22;11664;49.774;8.650;2023-01-23T05:13:40;1.70;99.90
22996;DHT22;11664;49.774;8.650;2023-01-23T05:16:06;1.70;99.90
22996;DHT22;11664;49.774;8.650;2023-01-23T05:18:32;1.70;99.90
22996;DHT22;11664;49.774;8.650;2023-01-23T05:20:59;1.70;99.90
22996;DHT22;11664;49.774;8.650;2023-01-23T05:23:25;1.70;99.90
22996;DHT22;11664;49.774;8.650;2023-01-23T05:25:50;1.70;99.90
22996;DHT22;11664;49.774;8.650;2023-01-23T05:28:16;1.70;99.90
22996;DHT22;11664;49.774;8.650;2023-01-23T05:30:43;1.70;99.90
22996;DHT22;11664;49.774;8.650;2023-01-23T05:33:09;1.70;99.90
22996;DHT22;11664;49.774;8.650;2023-01-23T05:35:37;1.70;99.90
22996;DHT22;11664;49.774;8.650;2023-01-23T05:38:02;1.70;99.90
22996;DHT22;11664;49.774;8.650;2023-01-23T05:40:28;1.60;99.90
22996;DHT22;11664;49.774;8.650;2023-01-23T05:42:54;1.60;99.90
22996;DHT22;11664;49.774;8.650;2023-01-23T05:45:19;1.60;99.90
22996;DHT22;11664;49.774;8.650;2023-01-23T05:47:45;1.60;99.90
22996;DHT22;11664;49.774;8.650;2023-01-23T05:50:14;1.70;99.90
22996;DHT22;11664;49.774;8.650;2023-01-23T05:52:40;1.60;99.90
22996;DHT22;11664;49.774;8.650;2023-01-23T05:55:06;1.70;99.90
22996;DHT22;11664;49.774;8.650;2023-01-23T05:57:33;1.70;99.90
22996;DHT22;11664;49.774;8.650;2023-01-23T05:59:58;1.60;99.90
22996;DHT22;11664;49.774;8.650;2023-01-23T06:02:24;1.70;99.90
22996;DHT22;11664;49.774;8.650;2023-01-23T06:04:49;1.70;99.90
22996;DHT22;11664;49.774;8.650;2023-01-23T06:07:16;1.70;99.90
22996;DHT22;11664;49.774;8.650;2023-01-23T06:09:42;1.70;99.90
22996;DHT22;11664;49.774;8.650;2023-01-23T06:12:08;1.70;99.90
22996;DHT22;11664;49.774;8.650;2023-01-23T06:14:34;1.70;99.90
22996;DHT22;11664;49.774;8.650;2023-01-23T06:17:00;1.70;99.90
22996;DHT22;11664;49.774;8.650;2023-01-23T06:19:26;1.70;99.90
22996;DHT22;11664;49.774;8.650;2023-01-23T06:21:51;1.70;99.90
22996;DHT22;11664;49.774;8.650;2023-01-23T06:24:17;1.70;99.90
22996;DHT22;11664;49.774;8.650;2023-01-23T06:26:43;1.70;99.90
22996;DHT22;11664;49.774;8.650;2023-01-23T06:29:09;1.70;99.90
22996;DHT22;11664;49.774;8.650;2023-01-23T06:31:34;1.70;99.90
22996;DHT22;11664;49.774;8.650;2023-01-23T06:34:00;1.70;99.90
22996;DHT22;11664;49.774;8.650;2023-01-23T06:36:26;1.70;99.90
22996;DHT22;11664;49.774;8.650;2023-01-23T06:38:51;1.70;99.90
22996;DHT22;11664;49.774;8.650;2023-01-23T06:41:17;1.70;99.90
22996;DHT22;11664;49.774;8.650;2023-01-23T06:43:42;1.70;99.90
22996;DHT22;11664;49.774;8.650;2023-01-23T06:46:09;1.70;99.90
22996;DHT22;11664;49.774;8.650;2023-01-23T06:48:35;1.70;99.90
22996;DHT22;11664;49.774;8.650;2023-01-23T06:51:01;1.70;99.90
22996;DHT22;11664;49.774;8.650;2023-01-23T06:53:27;1.70;99.90
22996;DHT22;11664;49.774;8.650;2023-01-23T06:55:53;1.80;99.90
22996;DHT22;11664;49.774;8.650;2023-01-23T06:58:18;1.80;99.90
22996;DHT22;11664;49.774;8.650;2023-01-23T07:00:44;1.80;99.90
22996;DHT22;11664;49.774;8.650;2023-01-23T07:03:11;1.80;99.90
22996;DHT22;11664;49.774;8.650;2023-01-23T07:05:38;1.80;99.90
22996;DHT22;11664;49.774;8.650;2023-01-23T07:08:06;1.80;99.90
22996;DHT22;11664;49.774;8.650;2023-01-23T07:10:33;1.80;99.90
22996;DHT22;11664;49.774;8.650;2023-01-23T07:12:59;1.80;99.90
22996;DHT22;11664;49.774;8.650;2023-01-23T07:15:24;1.70;99.90
22996;DHT22;11664;49.774;8.650;2023-01-23T07:17:50;1.70;99.90
22996;DHT22;11664;49.774;8.650;2023-01-23T07:20:15;1.80;99.90
22996;DHT22;11664;49.774;8.650;2023-01-23T07:22:41;1.70;99.90
22996;DHT22;11664;49.774;8.650;2023-01-23T07:25:07;1.70;99.90
22996;DHT22;11664;49.774;8.650;2023-01-23T07:27:33;1.80;99.90
22996;DHT22;11664;49.774;8.650;2023-01-23T07:29:59;1.80;99.90
22996;DHT22;11664;49.774;8.650;2023-01-23T07:32:24;1.80;99.90
22996;DHT22;11664;49.774;8.650;2023-01-23T07:34:50;1.80;99.90
22996;DHT22;11664;49.774;8.650;2023-01-23T07:37:17;1.80;99.90
22996;DHT22;11664;49.774;8.650;2023-01-23T07:39:42;1.80;99.90
22996;DHT22;11664;49.774;8.650;2023-01-23T07:42:09;1.90;99.90
22996;DHT22;11664;49.774;8.650;2023-01-23T07:44:35;1.90;99.90
22996;DHT22;11664;49.774;8.650;2023-01-23T07:47:00;1.90;99.90
22996;DHT22;11664;49.774;8.650;2023-01-23T07:49:26;1.90;99.90
22996;DHT22;11664;49.774;8.650;2023-01-23T07:51:51;1.90;99.90
22996;DHT22;11664;49.774;8.650;2023-01-23T07:54:17;1.90;99.90
22996;DHT22;11664;49.774;8.650;2023-01-23T07:56:43;2.00;99.90
22996;DHT22;11664;49.774;8.650;2023-01-23T07:59:08;2.10;99.90
22996;DHT22;11664;49.774;8.650;2023-01-23T08:01:34;2.10;99.90
22996;DHT22;11664;49.774;8.650;2023-01-23T08:03:59;2.10;99.90
22996;DHT22;11664;49.774;8.650;2023-01-23T08:06:25;2.10;99.90
22996;DHT22;11664;49.774;8.650;2023-01-23T08:08:51;2.10;99.90
22996;DHT22;11664;49.774;8.650;2023-01-23T08:11:16;2.10;99.90
22996;DHT22;11664;49.774;8.650;2023-01-23T08:13:42;2.00;99.90
22996;DHT22;11664;49.774;8.650;2023-01-23T08:16:07;2.10;99.90
22996;DHT22;11664;49.774;8.650;2023-01-23T08:18:33;2.10;99.90
22996;DHT22;11664;49.774;8.650;2023-01-23T08:21:00;2.10;99.90
22996;DHT22;11664;49.774;8.650;2023-01-23T08:23:29;2.10;99.90
22996;DHT22;11664;49.774;8.650;2023-01-23T08:25:56;2.10;99.90
22996;DHT22;11664;49.774;8.650;2023-01-23T08:28:23;2.10;99.90
22996;DHT22;11664;49.774;8.650;2023-01-23T08:30:50;2.10;99.90
22996;DHT22;11664;49.774;8.650;2023-01-23T08:33:16;2.10;99.90
22996;DHT22;11664;49.774;8.650;2023-01-23T08:35:56;2.10;99.90
22996;DHT22;11664;49.774;8.650;2023-01-23T08:38:22;2.10;99.90
22996;DHT22;11664;49.774;8.650;2023-01-23T08:40:50;2.20;99.90
22996;DHT22;11664;49.774;8.650;2023-01-23T08:43:16;2.20;99.90
22996;DHT22;11664;49.774;8.650;2023-01-23T08:45:47;2.20;99.90
22996;DHT22;11664;49.774;8.650;2023-01-23T08:48:13;2.20;99.90
22996;DHT22;11664;49.774;8.650;2023-01-23T08:50:39;2.20;99.90
22996;DHT22;11664;49.774;8.650;2023-01-23T08:53:04;2.30;99.90
22996;DHT22;11664;49.774;8.650;2023-01-23T08:55:30;2.30;99.90
22996;DHT22;11664;49.774;8.650;2023-01-23T08:57:56;2.30;99.90
22996;DHT22;11664;49.774;8.650;2023-01-23T09:00:22;2.30;99.90
22996;DHT22;11664;49.774;8.650;2023-01-23T09:02:48;2.30;99.90
22996;DHT22;11664;49.774;8.650;2023-01-23T09:05:14;2.30;99.90
22996;DHT22;11664;49.774;8.650;2023-01-23T09:07:39;2.40;99.90
22996;DHT22;11664;49.774;8.650;2023-01-23T09:10:06;2.40;99.90
22996;DHT22;11664;49.774;8.650;2023-01-23T09:12:32;2.40;99.90
22996;DHT22;11664;49.774;8.650;2023-01-23T09:14:58;2.40;99.90
22996;DHT22;11664;49.774;8.650;2023-01-23T09:17:24;2.40;99.90
22996;DHT22;11664;49.774;8.650;2023-01-23T09:19:49;2.50;99.90
22996;DHT22;11664;49.774;8.650;2023-01-23T09:22:16;2.50;99.90
22996;DHT22;11664;49.774;8.650;2023-01-23T09:24:41;2.50;99.90
22996;DHT22;11664;49.774;8.650;2023-01-23T09:27:08;2.40;99.90
22996;DHT22;11664;49.774;8.650;2023-01-23T09:29:34;2.50;99.90
22996;DHT22;11664;49.774;8.650;2023-01-23T09:32:00;2.50;99.90
22996;DHT22;11664;49.774;8.650;2023-01-23T09:34:26;2.50;99.90
22996;DHT22;11664;49.774;8.650;2023-01-23T09:36:52;2.50;99.90
22996;DHT22;11664;49.774;8.650;2023-01-23T09:39:18;2.50;99.90
22996;DHT22;11664;49.774;8.650;2023-01-23T09:41:45;2.60;99.90
22996;DHT22;11664;49.774;8.650;2023-01-23T09:44:17;2.60;99.90
22996;DHT22;11664;49.774;8.650;2023-01-23T09:46:45;2.60;99.90
22996;DHT22;11664;49.774;8.650;2023-01-23T09:52:12;2.60;99.90
22996;DHT22;11664;49.774;8.650;2023-01-23T09:54:45;2.60;99.90
22996;DHT22;11664;49.774;8.650;2023-01-23T09:57:14;2.60;99.90
22996;DHT22;11664;49.774;8.650;2023-01-23T09:59:48;2.70;99.90
22996;DHT22;11664;49.774;8.650;2023-01-23T10:02:21;2.70;99.90
22996;DHT22;11664;49.774;8.650;2023-01-23T10:04:49;2.70;99.90
22996;DHT22;11664;49.774;8.650;2023-01-23T10:10:28;2.70;99.90
22996;DHT22;11664;49.774;8.650;2023-01-23T10:18:41;2.80;99.90
22996;DHT22;11664;49.774;8.650;2023-01-23T10:23:43;2.80;99.90
22996;DHT22;11664;49.774;8.650;2023-01-23T10:26:21;2.80;99.90
22996;DHT22;11664;49.774;8.650;2023-01-23T10:28:47;2.90;99.90
22996;DHT22;11664;49.774;8.650;2023-01-23T10:31:34;2.90;99.90
22996;DHT22;11664;49.774;8.650;2023-01-23T10:39:36;3.10;99.90
22996;DHT22;11664;49.774;8.650;2023-01-23T10:42:11;3.10;99.90
22996;DHT22;11664;49.774;8.650;2023-01-23T10:44:37;3.10;99.90
22996;DHT22;11664;49.774;8.650;2023-01-23T10:47:15;3.10;99.90
22996;DHT22;11664;49.774;8.650;2023-01-23T10:49:44;3.10;99.90
22996;DHT22;11664;49.774;8.650;2023-01-23T10:52:31;3.10;99.90
22996;DHT22;11664;49.774;8.650;2023-01-23T10:54:57;3.20;99.90
22996;DHT22;11664;49.774;8.650;2023-01-23T10:57:25;3.20;99.90
22996;DHT22;11664;49.774;8.650;2023-01-23T11:00:04;3.20;99.90
22996;DHT22;11664;49.774;8.650;2023-01-23T11:02:36;3.30;99.90
22996;DHT22;11664;49.774;8.650;2023-01-23T11:07:57;3.10;99.90
22996;DHT22;11664;49.774;8.650;2023-01-23T11:10:23;3.10;99.90
22996;DHT22;11664;49.774;8.650;2023-01-23T11:12:51;3.10;99.90
22996;DHT22;11664;49.774;8.650;2023-01-23T11:17:54;3.10;99.90
22996;DHT22;11664;49.774;8.650;2023-01-23T11:20:32;3.10;99.90
22996;DHT22;11664;49.774;8.650;2023-01-23T11:25:37;3.00;99.90
22996;DHT22;11664;49.774;8.650;2023-01-23T11:30:58;3.10;99.90
22996;DHT22;11664;49.774;8.650;2023-01-23T11:34:32;3.20;99.90
22996;DHT22;11664;49.774;8.650;2023-01-23T11:39:47;3.20;99.90
22996;DHT22;11664;49.774;8.650;2023-01-23T11:42:15;3.20;99.90
22996;DHT22;11664;49.774;8.650;2023-01-23T11:44:41;3.30;99.90
22996;DHT22;11664;49.774;8.650;2023-01-23T11:47:36;3.20;99.90
22996;DHT22;11664;49.774;8.650;2023-01-23T11:50:26;3.20;99.90
22996;DHT22;11664;49.774;8.650;2023-01-23T11:53:22;3.30;99.90
22996;DHT22;11664;49.774;8.650;2023-01-23T11:56:10;3.40;99.90
22996;DHT22;11664;49.774;8.650;2023-01-23T11:59:02;3.50;99.90
22996;DHT22;11664;49.774;8.650;2023-01-23T12:12:41;3.60;99.90
22996;DHT22;11664;49.774;8.650;2023-01-23T12:15:31;3.60;99.90
22996;DHT22;11664;49.774;8.650;2023-01-23T12:20:58;3.80;99.90
22996;DHT22;11664;49.774;8.650;2023-01-23T12:26:20;3.80;99.90
22996;DHT22;11664;49.774;8.650;2023-01-23T12:37:15;3.70;99.90
22996;DHT22;11664;49.774;8.650;2023-01-23T12:42:30;3.70;99.90
22996;DHT22;11664;49.774;8.650;2023-01-23T12:50:45;3.70;99.90
22996;DHT22;11664;49.774;8.650;2023-01-23T12:53:13;3.70;99.90
22996;DHT22;11664;49.774;8.650;2023-01-23T12:55:57;3.60;99.90
22996;DHT22;11664;49.774;8.650;2023-01-23T12:58:26;3.70;99.90
22996;DHT22;11664;49.774;8.650;2023-01-23T13:01:14;3.70;99.90
22996;DHT22;11664;49.774;8.650;2023-01-23T13:06:53;3.70;99.90
22996;DHT22;11664;49.774;8.650;2023-01-23T13:12:06;3.70;99.90
22996;DHT22;11664;49.774;8.650;2023-01-23T13:16:59;3.70;99.90
22996;DHT22;11664;49.774;8.650;2023-01-23T13:19:30;3.70;99.90
22996;DHT22;11664;49.774;8.650;2023-01-23T13:22:26;3.70;99.90
22996;DHT22;11664;49.774;8.650;2023-01-23T13:25:01;3.70;99.90
22996;DHT22;11664;49.774;8.650;2023-01-23T13:27:49;3.70;99.90
22996;DHT22;11664;49.774;8.650;2023-01-23T13:36:11;3.70;99.90
22996;DHT22;11664;49.774;8.650;2023-01-23T13:38:36;3.60;99.90
22996;DHT22;11664;49.774;8.650;2023-01-23T13:43:52;3.60;99.90
22996;DHT22;11664;49.774;8.650;2023-01-23T13:46:55;3.60;99.90
22996;DHT22;11664;49.774;8.650;2023-01-23T13:52:25;3.70;99.90
22996;DHT22;11664;49.774;8.650;2023-01-23T13:55:14;3.80;99.90
22996;DHT22;11664;49.774;8.650;2023-01-23T13:58:01;3.80;99.90
22996;DHT22;11664;49.774;8.650;2023-01-23T14:00:29;3.80;99.90
22996;DHT22;11664;49.774;8.650;2023-01-23T14:03:10;3.90;99.90
22996;DHT22;11664;49.774;8.650;2023-01-23T14:06:05;4.10;99.90
22996;DHT22;11664;49.774;8.650;2023-01-23T14:08:31;4.20;99.90
22996;DHT22;11664;49.774;8.650;2023-01-23T14:10:56;4.30;99.90
22996;DHT22;11664;49.774;8.650;2023-01-23T14:13:22;4.30;99.90
22996;DHT22;11664;49.774;8.650;2023-01-23T14:15:50;4.30;99.90
22996;DHT22;11664;49.774;8.650;2023-01-23T14:18:47;4.20;99.90
22996;DHT22;11664;49.774;8.650;2023-01-23T14:21:28;4.30;99.90
22996;DHT22;11664;49.774;8.650;2023-01-23T14:23:56;4.30;99.90
22996;DHT22;11664;49.774;8.650;2023-01-23T14:26:34;4.30;99.90
22996;DHT22;11664;49.774;8.650;2023-01-23T14:29:00;4.30;99.90
22996;DHT22;11664;49.774;8.650;2023-01-23T14:31:29;4.30;99.90
22996;DHT22;11664;49.774;8.650;2023-01-23T14:33:59;4.30;99.90
22996;DHT22;11664;49.774;8.650;2023-01-23T14:36:26;4.40;99.90
22996;DHT22;11664;49.774;8.650;2023-01-23T14:38:52;4.30;99.90
22996;DHT22;11664;49.774;8.650;2023-01-23T14:41:23;4.30;99.90
22996;DHT22;11664;49.774;8.650;2023-01-23T14:43:49;4.30;99.90
22996;DHT22;11664;49.774;8.650;2023-01-23T14:46:19;4.20;99.90
22996;DHT22;11664;49.774;8.650;2023-01-23T14:48:50;4.30;99.90
22996;DHT22;11664;49.774;8.650;2023-01-23T14:51:22;4.20;99.90
22996;DHT22;11664;49.774;8.650;2023-01-23T14:54:01;4.20;99.90
22996;DHT22;11664;49.774;8.650;2023-01-23T14:56:35;4.30;99.90
22996;DHT22;11664;49.774;8.650;2023-01-23T14:59:07;4.30;99.90
22996;DHT22;11664;49.774;8.650;2023-01-23T15:01:37;4.30;99.90
22996;DHT22;11664;49.774;8.650;2023-01-23T15:04:05;4.30;99.90
22996;DHT22;11664;49.774;8.650;2023-01-23T15:06:33;4.30;99.90
22996;DHT22;11664;49.774;8.650;2023-01-23T15:09:12;4.30;99.90
22996;DHT22;11664;49.774;8.650;2023-01-23T15:11:38;4.30;99.90
22996;DHT22;11664;49.774;8.650;2023-01-23T15:14:04;4.30;99.90
22996;DHT22;11664;49.774;8.650;2023-01-23T15:16:34;4.30;99.90
22996;DHT22;11664;49.774;8.650;2023-01-23T15:21:34;4.20;99.90
22996;DHT22;11664;49.774;8.650;2023-01-23T15:26:38;4.20;99.90
22996;DHT22;11664;49.774;8.650;2023-01-23T15:31:33;4.10;99.90
22996;DHT22;11664;49.774;8.650;2023-01-23T15:37:04;4.00;99.90
22996;DHT22;11664;49.774;8.650;2023-01-23T15:39:32;4.00;99.90
22996;DHT22;11664;49.774;8.650;2023-01-23T15:42:01;3.90;99.90
22996;DHT22;11664;49.774;8.650;2023-01-23T15:44:31;3.80;99.90
22996;DHT22;11664;49.774;8.650;2023-01-23T15:46:57;3.70;99.90
22996;DHT22;11664;49.774;8.650;2023-01-23T15:49:29;3.60;99.90
22996;DHT22;11664;49.774;8.650;2023-01-23T15:51:56;3.70;99.90
22996;DHT22;11664;49.774;8.650;2023-01-23T15:54:27;3.60;99.90
22996;DHT22;11664;49.774;8.650;2023-01-23T15:56:52;3.50;99.90
22996;DHT22;11664;49.774;8.650;2023-01-23T15:59:18;3.50;99.90
22996;DHT22;11664;49.774;8.650;2023-01-23T16:01:44;3.40;99.90
22996;DHT22;11664;49.774;8.650;2023-01-23T16:04:10;3.30;99.90
22996;DHT22;11664;49.774;8.650;2023-01-23T16:06:36;3.30;99.90
22996;DHT22;11664;49.774;8.650;2023-01-23T16:09:03;3.30;99.90
22996;DHT22;11664;49.774;8.650;2023-01-23T16:11:31;3.30;99.90
22996;DHT22;11664;49.774;8.650;2023-01-23T16:13:58;3.30;99.90
22996;DHT22;11664;49.774;8.650;2023-01-23T16:16:24;3.30;99.90
22996;DHT22;11664;49.774;8.650;2023-01-23T16:18:50;3.20;99.90
22996;DHT22;11664;49.774;8.650;2023-01-23T16:21:16;3.20;99.90
22996;DHT22;11664;49.774;8.650;2023-01-23T16:23:44;3.20;99.90
22996;DHT22;11664;49.774;8.650;2023-01-23T16:26:19;3.20;99.90
22996;DHT22;11664;49.774;8.650;2023-01-23T16:28:45;3.10;99.90
22996;DHT22;11664;49.774;8.650;2023-01-23T16:31:14;3.10;99.90
22996;DHT22;11664;49.774;8.650;2023-01-23T16:33:40;3.20;99.90
22996;DHT22;11664;49.774;8.650;2023-01-23T16:36:11;3.20;99.90
22996;DHT22;11664;49.774;8.650;2023-01-23T16:38:37;3.10;99.90
22996;DHT22;11664;49.774;8.650;2023-01-23T16:41:03;3.10;99.90
22996;DHT22;11664;49.774;8.650;2023-01-23T16:43:28;3.10;99.90
22996;DHT22;11664;49.774;8.650;2023-01-23T16:45:54;3.00;99.90
22996;DHT22;11664;49.774;8.650;2023-01-23T16:48:20;3.10;99.90
22996;DHT22;11664;49.774;8.650;2023-01-23T16:50:52;3.10;99.90
22996;DHT22;11664;49.774;8.650;2023-01-23T16:53:34;3.00;99.90
22996;DHT22;11664;49.774;8.650;2023-01-23T16:56:00;3.00;99.90
22996;DHT22;11664;49.774;8.650;2023-01-23T16:58:28;2.90;99.90
22996;DHT22;11664;49.774;8.650;2023-01-23T17:01:11;2.90;99.90
22996;DHT22;11664;49.774;8.650;2023-01-23T17:03:39;2.90;99.90
22996;DHT22;11664;49.774;8.650;2023-01-23T17:06:10;2.90;99.90
22996;DHT22;11664;49.774;8.650;2023-01-23T17:08:36;2.80;99.90
22996;DHT22;11664;49.774;8.650;2023-01-23T17:11:03;2.90;99.90
22996;DHT22;11664;49.774;8.650;2023-01-23T17:13:30;2.90;99.90
22996;DHT22;11664;49.774;8.650;2023-01-23T17:15:58;2.80;99.90
22996;DHT22;11664;49.774;8.650;2023-01-23T17:18:27;2.80;99.90
22996;DHT22;11664;49.774;8.650;2023-01-23T17:20:54;2.90;99.90
22996;DHT22;11664;49.774;8.650;2023-01-23T17:23:21;2.80;99.90
22996;DHT22;11664;49.774;8.650;2023-01-23T17:25:46;2.80;99.90
22996;DHT22;11664;49.774;8.650;2023-01-23T17:28:13;2.70;99.90
22996;DHT22;11664;49.774;8.650;2023-01-23T17:30:39;2.80;99.90
22996;DHT22;11664;49.774;8.650;2023-01-23T17:33:19;2.70;99.90
22996;DHT22;11664;49.774;8.650;2023-01-23T17:35:46;2.80;99.90
22996;DHT22;11664;49.774;8.650;2023-01-23T17:38:20;2.80;99.90
22996;DHT22;11664;49.774;8.650;2023-01-23T17:40:47;2.70;99.90
22996;DHT22;11664;49.774;8.650;2023-01-23T17:43:14;2.70;99.90
22996;DHT22;11664;49.774;8.650;2023-01-23T17:45:41;2.70;99.90
22996;DHT22;11664;49.774;8.650;2023-01-23T17:48:11;2.60;99.90
22996;DHT22;11664;49.774;8.650;2023-01-23T17:50:38;2.60;99.90
22996;DHT22;11664;49.774;8.650;2023-01-23T17:53:05;2.60;99.90
22996;DHT22;11664;49.774;8.650;2023-01-23T17:55:31;2.60;99.90
22996;DHT22;11664;49.774;8.650;2023-01-23T17:57:57;2.50;99.90
22996;DHT22;11664;49.774;8.650;2023-01-23T18:00:23;2.60;99.90
22996;DHT22;11664;49.774;8.650;2023-01-23T18:02:55;2.60;99.90
22996;DHT22;11664;49.774;8.650;2023-01-23T18:05:21;2.50;99.90
22996;DHT22;11664;49.774;8.650;2023-01-23T18:07:47;2.50;99.90
22996;DHT22;11664;49.774;8.650;2023-01-23T18:10:12;2.50;99.90
22996;DHT22;11664;49.774;8.650;2023-01-23T18:13:04;2.50;99.90
22996;DHT22;11664;49.774;8.650;2023-01-23T18:16:07;2.50;99.90
22996;DHT22;11664;49.774;8.650;2023-01-23T18:18:37;2.50;99.90
22996;DHT22;11664;49.774;8.650;2023-01-23T18:21:06;2.50;99.90
22996;DHT22;11664;49.774;8.650;2023-01-23T18:23:32;2.40;99.90
22996;DHT22;11664;49.774;8.650;2023-01-23T18:28:58;2.40;99.90
22996;DHT22;11664;49.774;8.650;2023-01-23T18:31:42;2.40;99.90
22996;DHT22;11664;49.774;8.650;2023-01-23T18:37:46;2.40;99.90
22996;DHT22;11664;49.774;8.650;2023-01-23T18:40:21;2.40;99.90
22996;DHT22;11664;49.774;8.650;2023-01-23T18:43:11;2.40;99.90
22996;DHT22;11664;49.774;8.650;2023-01-23T18:45:39;2.30;99.90
22996;DHT22;11664;49.774;8.650;2023-01-23T18:48:15;2.30;99.90
22996;DHT22;11664;49.774;8.650;2023-01-23T18:56:49;2.30;99.90
22996;DHT22;11664;49.774;8.650;2023-01-23T18:59:40;2.30;99.90
22996;DHT22;11664;49.774;8.650;2023-01-23T19:04:54;2.30;99.90
22996;DHT22;11664;49.774;8.650;2023-01-23T19:07:20;2.30;99.90
22996;DHT22;11664;49.774;8.650;2023-01-23T19:09:47;2.20;99.90
22996;DHT22;11664;49.774;8.650;2023-01-23T19:12:29;2.30;99.90
22996;DHT22;11664;49.774;8.650;2023-01-23T19:15:17;2.20;99.90
22996;DHT22;11664;49.774;8.650;2023-01-23T19:20:45;2.20;99.90
22996;DHT22;11664;49.774;8.650;2023-01-23T19:25:55;2.20;99.90
22996;DHT22;11664;49.774;8.650;2023-01-23T19:28:21;2.20;99.90
22996;DHT22;11664;49.774;8.650;2023-01-23T19:30:47;2.30;99.90
22996;DHT22;11664;49.774;8.650;2023-01-23T19:33:17;2.30;99.90
22996;DHT22;11664;49.774;8.650;2023-01-23T19:35:43;2.30;99.90
22996;DHT22;11664;49.774;8.650;2023-01-23T19:38:09;2.30;99.90
22996;DHT22;11664;49.774;8.650;2023-01-23T19:40:35;2.30;99.90
22996;DHT22;11664;49.774;8.650;2023-01-23T19:43:00;2.30;99.90
22996;DHT22;11664;49.774;8.650;2023-01-23T19:45:26;2.20;99.90
22996;DHT22;11664;49.774;8.650;2023-01-23T19:47:52;2.20;99.90
22996;DHT22;11664;49.774;8.650;2023-01-23T19:50:19;2.20;99.90
22996;DHT22;11664;49.774;8.650;2023-01-23T19:52:46;2.20;99.90
22996;DHT22;11664;49.774;8.650;2023-01-23T19:57:47;2.20;99.90
22996;DHT22;11664;49.774;8.650;2023-01-23T20:00:13;2.20;99.90
22996;DHT22;11664;49.774;8.650;2023-01-23T20:02:40;2.20;99.90
22996;DHT22;11664;49.774;8.650;2023-01-23T20:05:06;2.10;99.90
22996;DHT22;11664;49.774;8.650;2023-01-23T20:07:31;2.10;99.90
22996;DHT22;11664;49.774;8.650;2023-01-23T20:09:57;2.10;99.90
22996;DHT22;11664;49.774;8.650;2023-01-23T20:12:22;2.10;99.90
22996;DHT22;11664;49.774;8.650;2023-01-23T20:14:48;2.20;99.90
22996;DHT22;11664;49.774;8.650;2023-01-23T20:17:13;2.10;99.90
22996;DHT22;11664;49.774;8.650;2023-01-23T20:19:39;2.10;99.90
22996;DHT22;11664;49.774;8.650;2023-01-23T20:22:05;2.10;99.90
22996;DHT22;11664;49.774;8.650;2023-01-23T20:24:30;2.10;99.90
22996;DHT22;11664;49.774;8.650;2023-01-23T20:26:56;2.10;99.90
22996;DHT22;11664;49.774;8.650;2023-01-23T20:29:21;2.10;99.90